createdAt,value
2019-05-03T00:02:01.915Z,10.30
2019-05-03T00:04:31.599Z,10.40
2019-05-03T00:07:00.023Z,10.30
2019-05-03T00:09:28.529Z,10.30
2019-05-03T00:31:51.668Z,10.20
2019-05-03T00:34:24.987Z,9.80
2019-05-03T00:37:10.352Z,9.80
2019-05-03T00:39:41.844Z,9.70
2019-05-03T00:42:11.959Z,9.80
2019-05-03T00:44:42.162Z,9.70
2019-05-03T00:47:12.539Z,9.60
2019-05-03T00:49:42.588Z,9.60
2019-05-03T00:52:11.707Z,9.60
2019-05-03T00:54:42.245Z,9.60
2019-05-03T00:57:12.061Z,9.70
2019-05-03T00:59:42.025Z,9.70
2019-05-03T01:02:11.878Z,9.80
2019-05-03T01:04:40.389Z,9.80
2019-05-03T01:07:08.913Z,9.80
2019-05-03T01:09:37.452Z,9.80
2019-05-03T01:12:05.823Z,9.70
2019-05-03T01:14:35.675Z,9.80
2019-05-03T01:17:04.292Z,9.90
2019-05-03T01:19:33.209Z,9.90
2019-05-03T01:22:02.032Z,9.90
2019-05-03T01:24:32.242Z,10.00
2019-05-03T01:27:01.934Z,10.00
2019-05-03T01:29:32.278Z,10.00
2019-05-03T01:32:02.323Z,10.00
2019-05-03T01:34:32.666Z,10.10
2019-05-03T01:37:02.673Z,10.00
2019-05-03T01:39:31.910Z,10.00
2019-05-03T01:42:02.459Z,10.00
2019-05-03T01:44:30.360Z,10.00
2019-05-03T01:47:02.202Z,9.90
2019-05-03T01:49:32.162Z,9.90
2019-05-03T01:52:04.901Z,9.90
2019-05-03T01:54:33.445Z,9.80
2019-05-03T01:57:02.527Z,9.80
2019-05-03T01:59:32.081Z,9.80
2019-05-03T02:02:07.360Z,9.80
2019-05-03T02:04:36.997Z,9.80
2019-05-03T02:07:05.577Z,9.80
2019-05-03T02:09:33.977Z,9.80
2019-05-03T02:12:02.350Z,9.80
2019-05-03T02:14:31.759Z,9.70
2019-05-03T02:17:01.775Z,9.80
2019-05-03T02:19:32.546Z,9.70
2019-05-03T02:22:02.706Z,9.60
2019-05-03T02:24:32.591Z,9.50
2019-05-03T02:27:02.161Z,9.40
2019-05-03T02:29:32.387Z,9.30
2019-05-03T02:32:03.133Z,9.30
2019-05-03T02:34:32.765Z,9.30
2019-05-03T02:37:02.958Z,9.30
2019-05-03T02:39:33.428Z,9.40
2019-05-03T02:42:09.353Z,9.30
2019-05-03T02:44:35.401Z,9.40
2019-05-03T02:47:05.539Z,9.40
2019-05-03T02:49:36.019Z,9.50
2019-05-03T02:52:06.693Z,9.50
2019-05-03T02:54:35.268Z,9.60
2019-05-03T02:57:06.365Z,9.50
2019-05-03T02:59:34.720Z,9.40
2019-05-03T03:02:06.109Z,9.50
2019-05-03T03:04:35.307Z,9.50
2019-05-03T03:07:05.640Z,9.50
2019-05-03T03:09:36.013Z,9.40
2019-05-03T03:12:06.199Z,9.40
2019-05-03T03:14:36.195Z,9.40
2019-05-03T03:17:06.614Z,9.50
2019-05-03T03:19:35.548Z,9.40
2019-05-03T03:22:06.118Z,9.40
2019-05-03T03:24:36.208Z,9.50
2019-05-03T03:27:06.634Z,9.50
2019-05-03T03:29:35.961Z,9.60
2019-05-03T03:32:12.133Z,9.50
2019-05-03T03:34:56.785Z,9.50
2019-05-03T03:37:25.708Z,9.60
2019-05-03T03:39:52.999Z,9.50
2019-05-03T03:42:21.508Z,9.50
2019-05-03T03:44:51.550Z,9.40
2019-05-03T03:47:20.363Z,9.40
2019-05-03T03:49:49.683Z,9.40
2019-05-03T03:52:18.092Z,9.40
2019-05-03T03:54:46.620Z,9.30
2019-05-03T03:57:16.348Z,9.20
2019-05-03T03:59:45.416Z,9.30
2019-05-03T04:02:16.045Z,9.30
2019-05-03T04:04:45.054Z,9.20
2019-05-03T04:07:15.829Z,9.20
2019-05-03T04:09:45.719Z,9.20
2019-05-03T04:12:16.591Z,9.20
2019-05-03T04:14:52.357Z,9.20
2019-05-03T04:17:25.741Z,9.20
2019-05-03T04:19:55.943Z,9.20
2019-05-03T04:22:25.422Z,9.20
2019-05-03T04:24:55.315Z,9.10
2019-05-03T04:27:27.183Z,9.20
2019-05-03T04:29:55.735Z,9.20
2019-05-03T04:32:28.426Z,9.10
2019-05-03T04:34:56.870Z,9.20
2019-05-03T04:37:26.707Z,9.10
2019-05-03T04:39:56.020Z,9.20
2019-05-03T04:42:25.571Z,9.20
2019-05-03T04:44:56.235Z,9.20
2019-05-03T04:47:26.400Z,9.40
2019-05-03T04:49:55.520Z,9.30
2019-05-03T04:52:25.862Z,9.30
2019-05-03T04:54:56.431Z,9.20
2019-05-03T04:57:36.394Z,9.20
2019-05-03T04:59:56.122Z,9.20
2019-05-03T05:02:26.227Z,9.20
2019-05-03T05:04:55.571Z,9.20
2019-05-03T05:07:26.174Z,9.30
2019-05-03T05:09:56.249Z,9.20
2019-05-03T05:12:25.177Z,9.20
2019-05-03T05:14:56.088Z,9.20
2019-05-03T05:17:26.342Z,9.10
2019-05-03T05:20:05.350Z,9.10
2019-05-03T05:22:35.504Z,9.10
2019-05-03T05:25:08.295Z,9.00
2019-05-03T05:27:55.420Z,9.10
2019-05-03T05:30:25.190Z,9.00
2019-05-03T05:32:55.327Z,8.90
2019-05-03T05:35:24.854Z,8.80
2019-05-03T05:37:54.703Z,8.90
2019-05-03T05:40:24.573Z,8.90
2019-05-03T05:42:54.578Z,8.80
2019-05-03T05:45:24.548Z,8.90
2019-05-03T05:47:54.778Z,8.90
2019-05-03T05:50:25.377Z,8.90
2019-05-03T05:52:55.197Z,9.00
2019-05-03T05:55:34.522Z,8.90
2019-05-03T05:58:07.531Z,9.00
2019-05-03T06:00:45.159Z,9.00
2019-05-03T06:03:14.936Z,8.90
2019-05-03T06:05:44.657Z,9.00
2019-05-03T06:08:15.129Z,9.10
2019-05-03T06:10:45.292Z,9.10
2019-05-03T06:13:15.303Z,9.00
2019-05-03T06:15:57.635Z,9.10
2019-05-03T06:18:27.833Z,9.10
2019-05-03T06:21:00.667Z,9.10
2019-05-03T06:23:30.579Z,9.20
2019-05-03T06:25:59.341Z,9.20
2019-05-03T06:28:32.247Z,9.20
2019-05-03T06:31:08.230Z,9.20
2019-05-03T06:33:36.566Z,9.30
2019-05-03T06:36:05.014Z,9.30
2019-05-03T06:38:34.422Z,9.30
2019-05-03T06:41:04.699Z,9.40
2019-05-03T06:43:34.805Z,9.50
2019-05-03T06:46:05.165Z,9.60
2019-05-03T06:48:35.240Z,9.60
2019-05-03T06:51:08.748Z,9.60
2019-05-03T06:53:34.539Z,9.70
2019-05-03T06:56:04.551Z,9.60
2019-05-03T06:58:34.268Z,9.70
2019-05-03T07:01:19.932Z,9.70
2019-05-03T07:03:55.848Z,9.70
2019-05-03T07:06:36.156Z,9.90
2019-05-03T07:08:57.376Z,10.00
2019-05-03T07:11:25.712Z,10.20
2019-05-03T07:13:54.989Z,10.40
2019-05-03T07:16:25.403Z,10.50
2019-05-03T07:18:56.467Z,10.60
2019-05-03T07:21:24.740Z,10.90
2019-05-03T07:23:55.044Z,10.90
2019-05-03T07:26:25.231Z,11.00
2019-05-03T07:28:54.534Z,11.00
2019-05-03T07:31:23.034Z,11.10
2019-05-03T07:33:52.151Z,11.30
2019-05-03T07:36:20.424Z,11.50
2019-05-03T07:38:48.679Z,11.70
2019-05-03T07:41:16.933Z,11.70
2019-05-03T07:43:45.230Z,11.90
2019-05-03T07:46:14.759Z,12.20
2019-05-03T07:48:45.537Z,12.30
2019-05-03T07:51:14.448Z,12.30
2019-05-03T07:53:44.974Z,12.20
2019-05-03T07:56:15.577Z,12.00
2019-05-03T07:58:58.617Z,11.80
2019-05-03T08:01:20.469Z,11.80
2019-05-03T08:03:48.739Z,11.50
2019-05-03T08:06:17.091Z,11.30
2019-05-03T08:08:45.532Z,11.20
2019-05-03T08:11:14.452Z,11.00
2019-05-03T08:13:44.658Z,11.40
2019-05-03T08:16:13.012Z,11.60
2019-05-03T08:18:41.284Z,11.40
2019-05-03T08:21:11.175Z,11.30
2019-05-03T08:23:39.435Z,11.60
2019-05-03T08:26:08.044Z,12.00
2019-05-03T08:28:37.527Z,12.30
2019-05-03T08:31:24.655Z,12.30
2019-05-03T08:33:56.996Z,11.90
2019-05-03T08:36:25.331Z,12.00
2019-05-03T08:38:56.348Z,12.00
2019-05-03T08:41:26.601Z,12.30
2019-05-03T08:43:55.053Z,12.60
2019-05-03T08:46:25.399Z,12.40
2019-05-03T08:48:54.842Z,12.50
2019-05-03T08:51:24.964Z,12.70
2019-05-03T08:53:55.759Z,13.00
2019-05-03T08:56:24.565Z,13.00
2019-05-03T08:58:55.308Z,12.90
2019-05-03T09:01:24.978Z,12.50
2019-05-03T09:03:53.081Z,12.40
2019-05-03T09:06:21.342Z,12.30
2019-05-03T09:08:49.876Z,12.10
2019-05-03T09:11:30.621Z,12.00
2019-05-03T09:13:52.811Z,11.80
2019-05-03T09:16:21.205Z,11.70
2019-05-03T09:18:49.737Z,11.80
2019-05-03T09:21:17.991Z,11.70
2019-05-03T09:23:46.298Z,11.50
2019-05-03T09:26:15.263Z,11.50
2019-05-03T09:28:45.431Z,11.40
2019-05-03T09:31:15.497Z,11.50
2019-05-03T09:33:45.119Z,11.50
2019-05-03T09:36:14.664Z,11.40
2019-05-03T09:38:45.602Z,11.40
2019-05-03T09:41:15.059Z,11.40
2019-05-03T09:43:45.115Z,11.40
2019-05-03T09:46:14.599Z,11.30
2019-05-03T09:48:45.145Z,11.30
2019-05-03T09:51:14.701Z,11.30
2019-05-03T09:53:45.007Z,11.40
2019-05-03T09:56:15.358Z,11.40
2019-05-03T09:58:43.240Z,11.50
2019-05-03T10:01:11.523Z,11.40
2019-05-03T10:03:39.775Z,11.50
2019-05-03T10:06:08.064Z,11.50
2019-05-03T10:08:36.344Z,11.40
2019-05-03T10:11:10.414Z,11.50
2019-05-03T10:13:41.855Z,11.50
2019-05-03T10:16:09.130Z,11.60
2019-05-03T10:18:37.379Z,11.60
2019-05-03T10:21:05.753Z,11.50
2019-05-03T10:23:35.980Z,11.50
2019-05-03T10:26:05.160Z,11.50
2019-05-03T10:28:33.943Z,11.40
2019-05-03T10:31:05.567Z,11.40
2019-05-03T10:33:41.659Z,11.40
2019-05-03T10:36:09.932Z,11.40
2019-05-03T10:38:38.183Z,11.50
2019-05-03T10:41:06.433Z,11.40
2019-05-03T10:43:35.449Z,11.40
2019-05-03T10:46:05.134Z,11.30
2019-05-03T10:48:35.609Z,11.30
2019-05-03T10:51:04.753Z,11.30
2019-05-03T10:53:38.016Z,11.30
2019-05-03T10:56:23.166Z,11.30
2019-05-03T10:58:54.989Z,11.20
2019-05-03T11:01:30.968Z,11.10
2019-05-03T11:03:59.245Z,11.10
2019-05-03T11:06:27.499Z,11.00
2019-05-03T11:08:55.784Z,11.10
2019-05-03T11:11:25.900Z,11.30
2019-05-03T11:13:54.105Z,11.30
2019-05-03T11:16:22.465Z,11.30
2019-05-03T11:18:50.725Z,11.30
2019-05-03T11:21:28.198Z,11.30
2019-05-03T11:23:49.069Z,11.40
2019-05-03T11:26:17.329Z,11.40
2019-05-03T11:28:45.577Z,11.30
2019-05-03T11:31:31.960Z,11.20
2019-05-03T11:34:01.856Z,11.30
2019-05-03T11:36:31.930Z,11.30
2019-05-03T11:39:00.300Z,11.40
2019-05-03T11:41:32.706Z,11.50
2019-05-03T11:44:01.815Z,11.60
2019-05-03T11:46:30.091Z,11.40
2019-05-03T11:48:58.343Z,11.30
2019-05-03T11:51:26.603Z,11.30
2019-05-03T11:53:54.869Z,11.10
2019-05-03T11:56:24.953Z,10.90
2019-05-03T11:58:54.896Z,10.70
2019-05-03T12:01:25.601Z,10.70
2019-05-03T12:03:55.920Z,10.80
2019-05-03T12:06:24.946Z,10.90
2019-05-03T12:08:55.269Z,10.90
2019-05-03T12:11:24.448Z,10.90
2019-05-03T12:14:02.387Z,10.90
2019-05-03T12:16:54.747Z,10.90
2019-05-03T12:18:55.096Z,11.00
2019-05-03T12:21:27.064Z,11.00
2019-05-03T12:23:56.502Z,11.20
2019-05-03T12:26:27.113Z,11.10
2019-05-03T12:28:54.049Z,11.10
2019-05-03T12:31:31.622Z,11.20
2019-05-03T12:33:52.323Z,11.30
2019-05-03T12:36:20.662Z,11.20
2019-05-03T12:38:48.965Z,11.00
2019-05-03T12:41:17.484Z,11.10
2019-05-03T12:43:45.841Z,11.10
2019-05-03T12:46:16.673Z,11.10
2019-05-03T12:48:44.802Z,11.20
2019-05-03T12:51:15.179Z,11.30
2019-05-03T12:53:43.417Z,11.40
2019-05-03T12:56:13.718Z,11.30
2019-05-03T12:58:45.544Z,11.40
2019-05-03T13:01:17.871Z,11.30
2019-05-03T13:03:47.767Z,11.20
2019-05-03T13:06:16.028Z,11.10
2019-05-03T13:08:45.614Z,11.00
2019-05-03T13:11:14.299Z,10.90
2019-05-03T13:13:42.555Z,10.80
2019-05-03T13:16:12.477Z,10.70
2019-05-03T13:18:40.812Z,10.60
2019-05-03T13:21:09.067Z,10.60
2019-05-03T13:23:37.511Z,10.70
2019-05-03T13:26:06.147Z,10.70
2019-05-03T13:28:34.920Z,10.80
2019-05-03T13:31:05.463Z,10.70
2019-05-03T13:33:34.816Z,10.70
2019-05-03T13:36:03.229Z,10.70
2019-05-03T13:38:31.503Z,10.70
2019-05-03T13:40:59.755Z,10.80
2019-05-03T13:43:28.013Z,10.80
2019-05-03T13:45:56.283Z,10.70
2019-05-03T13:48:26.255Z,10.70
2019-05-03T13:50:55.141Z,10.80
2019-05-03T13:53:25.453Z,10.90
2019-05-03T13:55:55.227Z,11.00
2019-05-03T13:58:23.600Z,11.20
2019-05-03T14:00:51.884Z,11.20
2019-05-03T14:03:20.132Z,11.30
2019-05-03T14:05:48.388Z,11.30
2019-05-03T14:08:16.664Z,11.30
2019-05-03T14:10:45.589Z,11.20
2019-05-03T14:13:14.151Z,11.20
2019-05-03T14:15:42.427Z,11.20
2019-05-03T14:18:10.775Z,11.20
2019-05-03T14:20:54.939Z,11.20
2019-05-03T14:23:25.184Z,11.10
2019-05-03T14:25:52.807Z,11.10
2019-05-03T14:28:21.084Z,11.00
2019-05-03T14:30:49.339Z,11.00
2019-05-03T14:33:17.672Z,10.80
2019-05-03T14:35:45.936Z,10.70
2019-05-03T14:38:15.140Z,10.70
2019-05-03T14:40:44.858Z,10.60
2019-05-03T14:43:15.430Z,10.50
2019-05-03T14:45:43.947Z,10.60
2019-05-03T14:48:12.202Z,10.50
2019-05-03T14:50:40.468Z,10.50
2019-05-03T14:53:08.816Z,10.40
2019-05-03T14:55:45.264Z,10.50
2019-05-03T14:58:20.243Z,10.60
2019-05-03T15:00:54.566Z,10.60
2019-05-03T15:03:24.836Z,10.60
2019-05-03T15:05:55.088Z,10.60
2019-05-03T15:08:25.504Z,10.60
2019-05-03T15:10:54.703Z,10.60
2019-05-03T15:13:25.082Z,10.60
2019-05-03T15:15:54.698Z,10.60
2019-05-03T15:18:25.376Z,10.70
2019-05-03T15:20:55.017Z,10.60
2019-05-03T15:23:25.514Z,10.60
2019-05-03T15:25:54.639Z,10.60
2019-05-03T15:28:25.096Z,10.50
2019-05-03T15:30:55.116Z,10.50
2019-05-03T15:33:23.358Z,10.60
2019-05-03T15:35:51.607Z,10.50
2019-05-03T15:38:19.887Z,10.40
2019-05-03T15:40:48.213Z,10.40
2019-05-03T15:43:28.937Z,10.50
2019-05-03T15:46:14.705Z,10.50
2019-05-03T15:48:57.013Z,10.40
2019-05-03T15:51:25.265Z,10.40
2019-05-03T15:53:55.117Z,10.50
2019-05-03T15:56:25.243Z,10.30
2019-05-03T15:58:55.189Z,10.40
2019-05-03T16:01:24.876Z,10.50
2019-05-03T16:03:55.420Z,10.40
2019-05-03T16:06:24.858Z,10.50
2019-05-03T16:08:55.116Z,10.50
2019-05-03T16:11:25.213Z,10.50
2019-05-03T16:13:55.155Z,10.50
2019-05-03T16:16:24.852Z,10.60
2019-05-03T16:18:53.545Z,10.50
2019-05-03T16:21:21.872Z,10.60
2019-05-03T16:23:50.137Z,10.60
2019-05-03T16:26:18.404Z,10.50
2019-05-03T16:28:55.264Z,10.60
2019-05-03T16:31:26.607Z,10.60
2019-05-03T16:33:55.235Z,10.50
2019-05-03T16:36:23.480Z,10.40
2019-05-03T16:38:52.837Z,10.40
2019-05-03T16:41:22.395Z,10.40
2019-05-03T16:43:50.651Z,10.30
2019-05-03T16:46:19.019Z,10.30
2019-05-03T16:48:47.351Z,10.30
2019-05-03T16:51:17.336Z,10.30
2019-05-03T16:54:05.144Z,10.20
2019-05-03T16:56:35.125Z,10.30
2019-05-03T16:59:03.492Z,10.20
2019-05-03T17:01:31.754Z,10.30
2019-05-03T17:04:01.651Z,10.30
2019-05-03T17:06:40.677Z,10.30
2019-05-03T17:09:25.786Z,10.30
2019-05-03T17:12:02.135Z,10.30
2019-05-03T17:14:30.468Z,10.20
2019-05-03T17:16:59.504Z,10.10
2019-05-03T17:19:27.845Z,10.10
2019-05-03T17:21:57.184Z,10.10
2019-05-03T17:24:25.487Z,10.10
2019-05-03T17:26:55.143Z,10.10
2019-05-03T17:29:24.636Z,10.10
2019-05-03T17:31:54.997Z,10.00
2019-05-03T17:34:25.001Z,9.90
2019-05-03T17:36:54.472Z,9.90
2019-05-03T17:39:41.303Z,9.80
2019-05-03T17:42:27.607Z,9.80
2019-05-03T17:44:56.186Z,9.60
2019-05-03T17:47:25.571Z,9.50
2019-05-03T17:49:54.690Z,9.50
2019-05-03T17:52:42.947Z,9.40
2019-05-03T17:55:24.742Z,9.30
2019-05-03T17:57:55.124Z,9.20
2019-05-03T18:00:40.171Z,9.10
2019-05-03T18:03:09.622Z,9.10
2019-05-03T18:05:45.678Z,9.10
2019-05-03T18:08:18.543Z,9.10
2019-05-03T18:10:48.439Z,9.00
2019-05-03T18:13:16.688Z,9.00
2019-05-03T18:15:45.312Z,9.00
2019-05-03T18:18:15.606Z,9.00
2019-05-03T18:20:45.019Z,9.00
2019-05-03T18:23:15.296Z,9.00
2019-05-03T18:25:44.677Z,9.00
2019-05-03T18:28:14.828Z,9.00
2019-05-03T18:30:45.324Z,9.00
2019-05-03T18:33:15.246Z,9.00
2019-05-03T18:35:43.231Z,8.90
2019-05-03T18:38:11.506Z,9.00
2019-05-03T18:40:39.753Z,9.00
2019-05-03T18:43:15.854Z,8.90
2019-05-03T18:45:54.718Z,8.90
2019-05-03T18:48:26.424Z,9.00
2019-05-03T18:50:54.817Z,9.00
2019-05-03T18:53:25.054Z,9.00
2019-05-03T18:55:55.111Z,8.90
2019-05-03T18:58:24.422Z,8.90
2019-05-03T19:00:54.746Z,8.80
2019-05-03T19:03:22.810Z,8.80
2019-05-03T19:05:55.943Z,8.80
2019-05-03T19:08:44.797Z,8.80
2019-05-03T19:11:27.043Z,8.90
2019-05-03T19:13:59.544Z,8.90
2019-05-03T19:16:46.049Z,8.80
2019-05-03T19:19:16.047Z,8.90
2019-05-03T19:21:44.496Z,8.80
2019-05-03T19:24:15.109Z,8.80
2019-05-03T19:26:44.935Z,8.70
2019-05-03T19:29:14.878Z,8.70
2019-05-03T19:31:44.937Z,8.70
2019-05-03T19:34:15.304Z,8.70
2019-05-03T19:36:45.425Z,8.60
2019-05-03T19:39:14.588Z,8.60
2019-05-03T19:41:44.684Z,8.50
2019-05-03T19:44:12.839Z,8.60
2019-05-03T19:46:41.096Z,8.60
2019-05-03T19:49:09.411Z,8.60
2019-05-03T19:51:37.723Z,8.50
2019-05-03T19:54:06.051Z,8.50
2019-05-03T19:56:34.351Z,8.50
2019-05-03T19:59:04.757Z,8.50
2019-05-03T20:01:37.350Z,8.40
2019-05-03T20:04:16.219Z,8.40
2019-05-03T20:06:52.003Z,8.30
2019-05-03T20:09:21.955Z,8.40
2019-05-03T20:11:50.308Z,8.40
2019-05-03T20:14:18.623Z,8.40
2019-05-03T20:16:46.890Z,8.40
2019-05-03T20:19:20.862Z,8.40
2019-05-03T20:21:45.134Z,8.30
2019-05-03T20:24:14.895Z,8.30
2019-05-03T20:26:45.082Z,8.30
2019-05-03T20:29:14.794Z,8.20
2019-05-03T20:31:44.689Z,8.20
2019-05-03T20:34:13.124Z,8.30
2019-05-03T20:36:41.471Z,8.30
2019-05-03T20:39:09.814Z,8.40
2019-05-03T20:41:38.143Z,8.30
2019-05-03T20:44:20.180Z,8.30
2019-05-03T20:46:54.952Z,8.30
2019-05-03T20:49:22.951Z,8.30
2019-05-03T20:51:51.442Z,8.30
2019-05-03T20:54:19.824Z,8.30
2019-05-03T20:56:48.136Z,8.20
2019-05-03T20:59:16.397Z,8.30
2019-05-03T21:01:45.345Z,8.20
2019-05-03T21:04:15.393Z,8.10
2019-05-03T21:06:45.499Z,8.20
2019-05-03T21:09:14.861Z,8.20
2019-05-03T21:11:44.796Z,8.10
2019-05-03T21:14:15.259Z,8.10
2019-05-03T21:16:54.540Z,8.10
2019-05-03T21:19:35.292Z,8.10
2019-05-03T21:22:05.583Z,8.10
2019-05-03T21:24:35.854Z,8.10
2019-05-03T21:27:05.036Z,8.10
2019-05-03T21:29:35.303Z,8.00
2019-05-03T21:32:04.593Z,8.00
2019-05-03T21:34:34.553Z,7.90
2019-05-03T21:37:03.121Z,7.90
2019-05-03T21:39:31.431Z,7.90
2019-05-03T21:42:00.695Z,7.90
2019-05-03T21:44:30.613Z,7.90
2019-05-03T21:47:00.571Z,7.90
2019-05-03T21:49:36.599Z,7.90
2019-05-03T21:52:06.221Z,7.90
2019-05-03T21:54:34.682Z,7.80
2019-05-03T21:57:03.119Z,7.90
2019-05-03T21:59:31.463Z,7.90
2019-05-03T22:02:00.287Z,7.90
2019-05-03T22:04:28.551Z,7.70
2019-05-03T22:06:56.916Z,7.70
2019-05-03T22:09:25.163Z,7.70
2019-05-03T22:11:54.852Z,7.70
2019-05-03T22:14:31.221Z,7.70
2019-05-03T22:17:17.463Z,7.70
2019-05-03T22:19:47.359Z,7.70
2019-05-03T22:22:25.411Z,7.60
2019-05-03T22:24:55.453Z,7.60
2019-05-03T22:27:24.694Z,7.60
2019-05-03T22:29:54.578Z,7.50
2019-05-03T22:32:24.498Z,7.50
2019-05-03T22:34:52.947Z,7.50
2019-05-03T22:37:21.239Z,7.50
2019-05-03T22:39:49.492Z,7.50
2019-05-03T22:42:17.745Z,7.40
2019-05-03T22:44:46.368Z,7.50
2019-05-03T22:47:14.853Z,7.50
2019-05-03T22:49:45.453Z,7.60
2019-05-03T22:52:15.270Z,7.50
2019-05-03T22:54:45.083Z,7.40
2019-05-03T22:57:15.335Z,7.30
2019-05-03T22:59:44.839Z,7.40
2019-05-03T23:02:16.800Z,7.40
2019-05-03T23:04:44.786Z,7.30
2019-05-03T23:07:14.821Z,7.30
2019-05-03T23:09:44.642Z,7.20
2019-05-03T23:12:13.263Z,7.30
2019-05-03T23:14:41.622Z,7.20
2019-05-03T23:17:09.863Z,7.20
2019-05-03T23:19:40.051Z,7.20
2019-05-03T23:22:15.987Z,7.20
2019-05-03T23:24:44.237Z,7.20
2019-05-03T23:27:14.331Z,7.20
2019-05-03T23:29:42.556Z,7.30
2019-05-03T23:32:10.897Z,7.30
2019-05-03T23:34:39.226Z,7.30
2019-05-03T23:37:07.607Z,7.30
2019-05-03T23:39:35.863Z,7.30
2019-05-03T23:42:05.097Z,7.30
2019-05-03T23:44:35.151Z,7.20
2019-05-03T23:47:05.391Z,7.30
2019-05-03T23:49:35.317Z,7.20
2019-05-03T23:52:21.731Z,7.40
2019-05-03T23:54:49.981Z,7.40
2019-05-03T23:57:18.240Z,7.40
2019-05-03T23:59:46.543Z,7.30
